Sirius — V7KI6 — position and weather

sailwx.info

Track history (hours):
 
Tides and Currents Weather Stations Pressure Air Temp Water Temp Dewpoint Dewpoint Depression Visibility Wind Speed Wind Dir Waves Ship Positions

Sirius

Last reported at 2015-Jan-28 17:33 UTC. Time now 2015-Jan-30 00:30 UTC.
Position N 34°32' E 033°24'.

Length 178.1 m; beam 28.2 m; draft 11.5 m.

Type: Cargo ship. MMSI: 538090245.

Date/timePositionNaut miles runAvg speedWind from/ knotsBaromVisibWave heightAir tempDewpointWater temp
2015-Jan-28 17:33N 34°32' E 033°24'1615.8
2015-Jan-28 16:33N 34°38' E 033°06'4 4.0
2015-Jan-28 15:31N 34°39' E 033°01'0 0.0
2015-Jan-28 14:31N 34°39' E 033°01'0 0.0
2015-Jan-28 13:31N 34°39' E 033°01'0 0.0
2015-Jan-28 12:31N 34°39' E 033°01'0 0.0
2015-Jan-28 11:31N 34°39' E 033°01'0 0.0
2015-Jan-28 10:31N 34°39' E 033°01'0 0.0
2015-Jan-28 09:31N 34°39' E 033°01'0 0.0
2015-Jan-28 08:31N 34°39' E 033°01'0 0.0
2015-Jan-28 07:31N 34°39' E 033°01'0 0.0
2015-Jan-28 06:31N 34°39' E 033°01'0 0.0
2015-Jan-28 05:31N 34°39' E 033°01'1 0.8
2015-Jan-28 04:33N 34°39' E 033°02'3 2.7
2015-Jan-28 03:31N 34°40' E 033°05'0 0.0
2015-Jan-28 02:32N 34°40' E 033°05'0 0.3
2015-Jan-28 01:34N 34°40' E 033°05'6 6.5
2015-Jan-28 00:33N 34°39' E 033°13'2317.0
2015-Jan-27 23:13N 34°39' E 033°40'79 1.9
2015-Jan-26 05:28N 35°49' E 032°55'20 0.7
2015-Jan-25 00:06N 35°53' E 032°31'1717.1
2015-Jan-24 23:08N 35°53' E 032°51'  
Track history (hours):
 
Tides and Currents Weather Stations Pressure Air Temp Water Temp Dewpoint Dewpoint Depression Visibility Wind Speed Wind Dir Waves Ship Positions

Sirius

Last reported at 2015-Jan-28 17:33 UTC. Time now 2015-Jan-30 00:30 UTC.
Position N 34°32' E 033°24'.

Length 178.1 m; beam 28.2 m; draft 11.5 m.

Type: Cargo ship. MMSI: 538090245.

Date/timePositionNaut miles runAvg speedWind from/ knotsBaromVisibWave heightAir tempDewpointWater temp
2015-Jan-28 17:33N 34°32' E 033°24'1615.8
2015-Jan-28 16:33N 34°38' E 033°06'4 4.0
2015-Jan-28 15:31N 34°39' E 033°01'0 0.0
2015-Jan-28 14:31N 34°39' E 033°01'0 0.0
2015-Jan-28 13:31N 34°39' E 033°01'0 0.0
2015-Jan-28 12:31N 34°39' E 033°01'0 0.0
2015-Jan-28 11:31N 34°39' E 033°01'0 0.0
2015-Jan-28 10:31N 34°39' E 033°01'0 0.0
2015-Jan-28 09:31N 34°39' E 033°01'0 0.0
2015-Jan-28 08:31N 34°39' E 033°01'0 0.0
2015-Jan-28 07:31N 34°39' E 033°01'0 0.0
2015-Jan-28 06:31N 34°39' E 033°01'0 0.0
2015-Jan-28 05:31N 34°39' E 033°01'1 0.8
2015-Jan-28 04:33N 34°39' E 033°02'3 2.7
2015-Jan-28 03:31N 34°40' E 033°05'0 0.0
2015-Jan-28 02:32N 34°40' E 033°05'0 0.3
2015-Jan-28 01:34N 34°40' E 033°05'6 6.5
2015-Jan-28 00:33N 34°39' E 033°13'2317.0
2015-Jan-27 23:13N 34°39' E 033°40'79 1.9
2015-Jan-26 05:28N 35°49' E 032°55'20 0.7
2015-Jan-25 00:06N 35°53' E 032°31'1717.1
2015-Jan-24 23:08N 35°53' E 032°51'  

Dump ship's entire track history